createdAt,value
2019-02-14T00:00:53.626Z,11.03
2019-02-14T00:03:22.401Z,11.93
2019-02-14T00:05:50.842Z,12.30
2019-02-14T00:08:19.388Z,9.13
2019-02-14T00:10:48.143Z,12.07
2019-02-14T00:13:16.594Z,11.00
2019-02-14T00:15:45.048Z,10.33
2019-02-14T00:18:13.497Z,12.00
2019-02-14T00:20:41.945Z,11.90
2019-02-14T00:23:10.391Z,10.97
2019-02-14T00:25:39.230Z,10.60
2019-02-14T00:28:07.662Z,10.57
2019-02-14T00:30:36.113Z,11.63
2019-02-14T00:33:04.934Z,9.80
2019-02-14T00:35:33.757Z,9.50
2019-02-14T00:38:02.645Z,10.03
2019-02-14T00:40:31.076Z,8.63
2019-02-14T00:42:59.816Z,10.17
2019-02-14T00:45:28.267Z,12.10
2019-02-14T00:47:56.722Z,9.87
2019-02-14T00:50:25.169Z,10.27
2019-02-14T00:52:53.613Z,9.27
2019-02-14T00:55:22.079Z,9.23
2019-02-14T00:57:50.801Z,8.77
2019-02-14T01:00:19.251Z,9.10
2019-02-14T01:02:47.973Z,8.67
2019-02-14T01:05:33.413Z,8.93
2019-02-14T01:07:56.600Z,9.30
2019-02-14T01:10:25.069Z,10.43
2019-02-14T01:12:53.510Z,9.10
2019-02-14T01:15:23.236Z,8.70
2019-02-14T01:17:52.047Z,8.70
2019-02-14T01:20:20.551Z,13.20
2019-02-14T01:22:48.992Z,11.73
2019-02-14T01:25:17.441Z,7.73
2019-02-14T01:27:45.917Z,10.13
2019-02-14T01:30:15.069Z,10.57
2019-02-14T01:32:43.841Z,9.00
2019-02-14T01:35:12.418Z,9.70
2019-02-14T01:37:40.911Z,10.57
2019-02-14T01:40:09.804Z,11.97
2019-02-14T01:42:38.593Z,8.77
2019-02-14T01:45:10.475Z,11.83
2019-02-14T01:47:38.941Z,10.33
2019-02-14T01:50:10.326Z,10.47
2019-02-14T01:52:38.798Z,8.00
2019-02-14T01:55:07.388Z,6.27
2019-02-14T01:57:36.116Z,7.17
2019-02-14T02:00:08.165Z,8.33
2019-02-14T02:02:36.961Z,8.77
2019-02-14T02:05:05.659Z,5.60
2019-02-14T02:07:34.117Z,6.57
2019-02-14T02:10:02.531Z,6.00
2019-02-14T02:12:30.986Z,7.07
2019-02-14T02:14:59.428Z,8.60
2019-02-14T02:17:28.333Z,8.53
2019-02-14T02:19:57.241Z,9.17
2019-02-14T02:22:25.666Z,8.43
2019-02-14T02:24:54.421Z,6.47
2019-02-14T02:27:23.149Z,8.90
2019-02-14T02:29:51.644Z,7.13
2019-02-14T02:32:20.088Z,8.30
2019-02-14T02:34:48.549Z,6.83
2019-02-14T02:37:16.972Z,7.47
2019-02-14T02:39:45.420Z,5.97
2019-02-14T02:42:13.883Z,5.73
2019-02-14T02:44:42.326Z,6.83
2019-02-14T02:47:10.774Z,9.10
2019-02-14T02:49:39.230Z,8.43
2019-02-14T02:52:07.692Z,7.53
2019-02-14T02:54:36.812Z,6.43
2019-02-14T02:57:05.273Z,7.27
2019-02-14T02:59:33.728Z,5.63
2019-02-14T03:02:02.151Z,7.27
2019-02-14T03:04:30.597Z,6.43
2019-02-14T03:06:59.045Z,9.33
2019-02-14T03:09:27.484Z,8.70
2019-02-14T03:11:55.931Z,7.47
2019-02-14T03:14:24.722Z,7.73
2019-02-14T03:16:53.167Z,5.20
2019-02-14T03:19:21.896Z,7.40
2019-02-14T03:21:50.339Z,8.13
2019-02-14T03:24:18.783Z,6.83
2019-02-14T03:26:47.230Z,6.57
2019-02-14T03:29:15.691Z,5.93
2019-02-14T03:31:44.134Z,5.07
2019-02-14T03:34:12.581Z,4.67
2019-02-14T03:36:41.022Z,6.23
2019-02-14T03:39:09.468Z,7.53
2019-02-14T03:41:38.209Z,6.43
2019-02-14T03:44:06.681Z,5.63
2019-02-14T03:46:35.113Z,6.53
2019-02-14T03:49:04.597Z,5.93
2019-02-14T03:51:33.198Z,5.50
2019-02-14T03:54:01.657Z,7.70
2019-02-14T03:56:30.097Z,5.57
2019-02-14T03:58:58.541Z,7.07
2019-02-14T04:01:26.989Z,9.77
2019-02-14T04:03:55.424Z,6.10
2019-02-14T04:06:27.592Z,5.97
2019-02-14T04:08:54.056Z,4.77
2019-02-14T04:11:22.513Z,5.43
2019-02-14T04:13:50.956Z,6.30
2019-02-14T04:16:19.404Z,4.70
2019-02-14T04:18:48.287Z,5.50
2019-02-14T04:21:17.068Z,4.53
2019-02-14T04:23:45.843Z,6.83
2019-02-14T04:26:14.309Z,5.33
2019-02-14T04:28:42.763Z,6.93
2019-02-14T04:31:11.215Z,5.60
2019-02-14T04:33:39.670Z,7.77
2019-02-14T04:36:08.438Z,5.43
2019-02-14T04:38:36.888Z,8.47
2019-02-14T04:41:05.413Z,7.10
2019-02-14T04:43:33.888Z,5.63
2019-02-14T04:46:02.340Z,8.23
2019-02-14T04:48:30.791Z,6.27
2019-02-14T04:50:59.629Z,10.57
2019-02-14T04:53:28.115Z,8.37
2019-02-14T04:55:56.580Z,9.50
2019-02-14T04:58:25.020Z,6.00
2019-02-14T05:00:53.768Z,5.57
2019-02-14T05:03:22.225Z,6.80
2019-02-14T05:05:50.979Z,9.37
2019-02-14T05:08:19.415Z,7.13
2019-02-14T05:10:47.908Z,5.60
2019-02-14T05:13:16.348Z,4.93
2019-02-14T05:15:45.159Z,7.27
2019-02-14T05:18:13.604Z,6.60
2019-02-14T05:20:42.078Z,6.17
2019-02-14T05:23:10.532Z,5.67
2019-02-14T05:25:38.965Z,5.43
2019-02-14T05:28:07.752Z,6.80
2019-02-14T05:30:36.454Z,8.30
2019-02-14T05:33:04.921Z,5.57
2019-02-14T05:35:33.700Z,6.13
2019-02-14T05:38:02.485Z,8.10
2019-02-14T05:40:30.929Z,5.90
2019-02-14T05:42:59.403Z,5.97
2019-02-14T05:45:28.134Z,6.47
2019-02-14T05:47:56.607Z,5.63
2019-02-14T05:50:25.080Z,8.63
2019-02-14T05:52:53.888Z,7.45
2019-02-14T05:55:22.494Z,8.60
2019-02-14T05:57:51.058Z,8.55
2019-02-14T06:00:20.276Z,6.13
2019-02-14T06:02:49.120Z,7.58
2019-02-14T06:05:17.912Z,7.40
2019-02-14T06:07:46.457Z,8.83
2019-02-14T06:10:14.922Z,5.90
2019-02-14T06:12:43.404Z,6.30
2019-02-14T06:15:14.454Z,5.03
2019-02-14T06:17:42.956Z,5.53
2019-02-14T06:20:13.450Z,6.78
2019-02-14T06:22:42.077Z,4.63
2019-02-14T06:25:12.072Z,6.63
2019-02-14T06:27:44.688Z,6.42
2019-02-14T06:30:15.523Z,4.47
2019-02-14T06:32:44.174Z,8.43
2019-02-14T06:35:12.883Z,7.10
2019-02-14T06:37:41.370Z,6.05
2019-02-14T06:40:12.711Z,5.80
2019-02-14T06:42:41.499Z,4.87
2019-02-14T06:45:17.870Z,5.53
2019-02-14T06:47:46.328Z,6.83
2019-02-14T06:50:14.897Z,6.35
2019-02-14T06:52:43.346Z,5.83
2019-02-14T06:55:11.800Z,6.60
2019-02-14T06:57:40.304Z,5.43
2019-02-14T07:00:12.047Z,5.43
2019-02-14T07:02:40.495Z,5.13
2019-02-14T07:05:10.567Z,5.40
2019-02-14T07:07:40.542Z,5.70
2019-02-14T07:10:11.044Z,5.47
2019-02-14T07:12:39.490Z,6.90
2019-02-14T07:15:12.960Z,7.53
2019-02-14T07:17:41.399Z,5.90
2019-02-14T07:20:12.784Z,7.90
2019-02-14T07:22:41.235Z,7.07
2019-02-14T07:25:11.652Z,6.53
2019-02-14T07:27:40.082Z,6.67
2019-02-14T07:30:11.988Z,5.97
2019-02-14T07:32:40.804Z,5.23
2019-02-14T07:35:10.301Z,6.33
2019-02-14T07:37:38.755Z,6.93
2019-02-14T07:40:10.333Z,6.27
2019-02-14T07:42:38.859Z,5.20
2019-02-14T07:45:13.234Z,7.03
2019-02-14T07:47:41.705Z,8.47
2019-02-14T07:50:11.876Z,8.50
2019-02-14T07:52:40.612Z,7.10
2019-02-14T07:55:13.919Z,7.80
2019-02-14T07:57:42.556Z,5.67
2019-02-14T08:00:18.305Z,5.30
2019-02-14T08:02:46.763Z,7.23
2019-02-14T08:05:15.477Z,6.37
2019-02-14T08:07:43.938Z,6.73
2019-02-14T08:10:19.352Z,7.00
2019-02-14T08:12:48.089Z,11.50
2019-02-14T08:15:16.541Z,18.23
2019-02-14T08:17:45.018Z,16.87
2019-02-14T08:20:21.276Z,14.00
2019-02-14T08:22:49.748Z,10.23
2019-02-14T08:25:18.191Z,12.70
2019-02-14T08:27:46.821Z,9.53
2019-02-14T08:30:18.212Z,8.63
2019-02-14T08:32:51.864Z,12.57
2019-02-14T08:35:20.304Z,8.40
2019-02-14T08:37:49.077Z,8.77
2019-02-14T08:40:33.992Z,11.27
2019-02-14T08:43:02.715Z,8.53
2019-02-14T08:45:31.504Z,7.63
2019-02-14T08:47:59.958Z,5.73
2019-02-14T08:50:30.432Z,8.00
2019-02-14T08:52:58.909Z,5.57
2019-02-14T08:55:27.391Z,6.33
2019-02-14T08:57:56.190Z,8.07
2019-02-14T09:00:25.366Z,9.97
2019-02-14T09:02:53.825Z,8.17
2019-02-14T09:05:22.259Z,8.77
2019-02-14T09:07:54.589Z,9.70
2019-02-14T09:10:21.225Z,6.87
2019-02-14T09:12:50.017Z,9.47
2019-02-14T09:15:18.500Z,8.77
2019-02-14T09:17:46.951Z,8.53
2019-02-14T09:20:34.084Z,9.83
2019-02-14T09:23:03.754Z,8.17
2019-02-14T09:25:35.395Z,8.03
2019-02-14T09:28:04.243Z,7.30
2019-02-14T09:30:35.403Z,5.27
2019-02-14T09:33:04.831Z,6.03
2019-02-14T09:35:33.349Z,5.53
2019-02-14T09:38:03.619Z,8.47
2019-02-14T09:40:48.435Z,7.43
2019-02-14T09:43:16.890Z,4.13
2019-02-14T09:45:45.321Z,3.57
2019-02-14T09:48:13.768Z,4.10
2019-02-14T09:50:42.559Z,3.70
2019-02-14T09:53:11.359Z,3.33
2019-02-14T09:55:40.145Z,7.33
2019-02-14T09:58:08.936Z,3.83
2019-02-14T10:00:37.727Z,3.93
2019-02-14T10:03:06.157Z,2.80
2019-02-14T10:05:34.672Z,3.50
2019-02-14T10:08:12.217Z,7.27
2019-02-14T10:10:33.630Z,6.40
2019-02-14T10:13:02.371Z,5.93
2019-02-14T10:15:31.157Z,5.80
2019-02-14T10:17:59.927Z,4.20
2019-02-14T10:20:28.728Z,4.30
2019-02-14T10:22:57.497Z,4.33
2019-02-14T10:25:26.387Z,5.33
2019-02-14T10:27:55.278Z,5.50
2019-02-14T10:30:24.681Z,5.30
2019-02-14T10:32:53.124Z,4.57
2019-02-14T10:35:21.566Z,5.43
2019-02-14T10:37:50.332Z,7.50
2019-02-14T10:40:18.746Z,7.77
2019-02-14T10:42:47.206Z,9.43
2019-02-14T10:45:20.567Z,6.57
2019-02-14T10:47:49.469Z,7.57
2019-02-14T10:50:18.361Z,4.73
2019-02-14T10:52:46.804Z,5.23
2019-02-14T10:55:16.447Z,5.83
2019-02-14T10:57:45.336Z,7.00
2019-02-14T11:00:22.758Z,4.37
2019-02-14T11:02:52.233Z,5.63
2019-02-14T11:05:21.272Z,3.83
2019-02-14T11:07:49.700Z,3.87
2019-02-14T11:10:18.302Z,4.53
2019-02-14T11:12:47.079Z,4.37
2019-02-14T11:15:18.464Z,5.60
2019-02-14T11:17:48.939Z,5.07
2019-02-14T11:20:17.983Z,4.33
2019-02-14T11:22:48.873Z,3.80
2019-02-14T11:25:22.506Z,3.97
2019-02-14T11:27:51.141Z,3.50
2019-02-14T11:30:19.675Z,4.13
2019-02-14T11:32:48.130Z,3.37
2019-02-14T11:35:16.608Z,6.27
2019-02-14T11:37:45.053Z,3.50
2019-02-14T11:40:14.700Z,3.87
2019-02-14T11:42:43.183Z,4.20
2019-02-14T11:45:23.708Z,5.23
2019-02-14T11:47:52.211Z,4.90
2019-02-14T11:50:20.991Z,6.13
2019-02-14T11:52:49.540Z,4.90
2019-02-14T11:55:17.982Z,3.83
2019-02-14T11:57:46.747Z,4.27
2019-02-14T12:00:24.710Z,3.73
2019-02-14T12:02:55.929Z,6.57
2019-02-14T12:05:24.063Z,6.03
2019-02-14T12:07:52.590Z,4.37
2019-02-14T12:10:21.332Z,5.50
2019-02-14T12:12:50.603Z,8.23
2019-02-14T12:15:19.064Z,3.70
2019-02-14T12:17:47.545Z,4.27
2019-02-14T12:20:18.645Z,5.83
2019-02-14T12:22:47.775Z,4.93
2019-02-14T12:25:27.862Z,10.17
2019-02-14T12:27:56.315Z,6.17
2019-02-14T12:30:24.764Z,8.40
2019-02-14T12:32:53.212Z,9.27
2019-02-14T12:35:21.648Z,7.03
2019-02-14T12:37:50.079Z,6.67
2019-02-14T12:40:18.514Z,6.00
2019-02-14T12:42:54.539Z,9.13
2019-02-14T12:45:26.039Z,7.93
2019-02-14T12:47:54.993Z,7.13
2019-02-14T12:50:29.344Z,7.63
2019-02-14T12:52:57.775Z,9.50
2019-02-14T12:55:26.234Z,12.20
2019-02-14T12:57:54.991Z,6.50
2019-02-14T13:00:24.695Z,8.10
2019-02-14T13:02:58.459Z,7.43
2019-02-14T13:05:26.889Z,7.97
2019-02-14T13:07:55.319Z,8.23
2019-02-14T13:10:23.795Z,11.03
2019-02-14T13:12:53.416Z,9.77
2019-02-14T13:15:24.709Z,9.13
2019-02-14T13:17:53.487Z,8.83
2019-02-14T13:20:23.577Z,7.23
2019-02-14T13:22:55.097Z,8.37
2019-02-14T13:25:23.539Z,11.10
2019-02-14T13:27:52.511Z,9.03
2019-02-14T13:30:26.251Z,9.40
2019-02-14T13:32:54.749Z,10.47
2019-02-14T13:35:23.212Z,7.57
2019-02-14T13:37:51.959Z,8.30
2019-02-14T13:40:20.815Z,7.40
2019-02-14T13:42:49.563Z,10.33
2019-02-14T13:45:21.371Z,9.10
2019-02-14T13:47:50.215Z,7.33
2019-02-14T13:50:18.718Z,9.10
2019-02-14T13:52:47.191Z,10.60
2019-02-14T13:55:15.628Z,10.23
2019-02-14T13:57:44.075Z,10.70
2019-02-14T14:00:22.585Z,12.40
2019-02-14T14:02:51.062Z,8.03
2019-02-14T14:05:19.984Z,12.07
2019-02-14T14:08:05.912Z,9.50
2019-02-14T14:10:34.363Z,9.70
2019-02-14T14:13:02.842Z,9.40
2019-02-14T14:15:50.795Z,9.80
2019-02-14T14:18:19.555Z,9.70
2019-02-14T14:20:47.998Z,12.23
2019-02-14T14:23:16.448Z,8.83
2019-02-14T14:25:44.894Z,10.07
2019-02-14T14:28:13.695Z,9.97
2019-02-14T14:30:42.154Z,9.93
2019-02-14T14:33:10.946Z,13.73
2019-02-14T14:35:39.395Z,9.50
2019-02-14T14:38:08.230Z,12.87
2019-02-14T14:40:36.677Z,9.20
2019-02-14T14:43:16.362Z,11.23
2019-02-14T14:45:49.829Z,13.37
2019-02-14T14:48:19.881Z,9.63
2019-02-14T14:50:48.447Z,8.17
2019-02-14T14:53:17.228Z,8.40
2019-02-14T14:55:45.671Z,8.27
2019-02-14T14:58:14.105Z,14.10
2019-02-14T15:00:42.555Z,11.60
2019-02-14T15:03:10.999Z,10.07
2019-02-14T15:05:39.459Z,11.43
2019-02-14T15:08:07.910Z,11.73
2019-02-14T15:10:38.026Z,9.60
2019-02-14T15:13:06.483Z,11.10
2019-02-14T15:15:35.186Z,12.70
2019-02-14T15:18:03.669Z,13.40
2019-02-14T15:20:32.109Z,13.63
2019-02-14T15:23:00.559Z,11.67
2019-02-14T15:25:29.004Z,16.33
2019-02-14T15:27:57.781Z,11.87
2019-02-14T15:30:26.563Z,12.37
2019-02-14T15:32:55.039Z,13.30
2019-02-14T15:35:23.845Z,8.97
2019-02-14T15:37:52.307Z,14.90
2019-02-14T15:40:20.732Z,9.13
2019-02-14T15:42:49.191Z,15.87
2019-02-14T15:45:17.643Z,14.13
2019-02-14T15:47:46.083Z,16.93
2019-02-14T15:50:15.950Z,14.33
2019-02-14T15:52:44.400Z,12.10
2019-02-14T15:55:12.846Z,12.73
2019-02-14T15:57:42.869Z,11.83
2019-02-14T16:00:14.051Z,17.57
2019-02-14T16:02:42.615Z,22.43
2019-02-14T16:05:11.430Z,25.53
2019-02-14T16:07:41.436Z,18.90
2019-02-14T16:10:18.077Z,13.20
2019-02-14T16:12:41.330Z,14.30
2019-02-14T16:15:10.748Z,12.97
2019-02-14T16:17:39.203Z,12.20
2019-02-14T16:20:08.823Z,15.83
2019-02-14T16:22:45.971Z,10.00
2019-02-14T16:25:18.458Z,10.20
2019-02-14T16:27:56.043Z,8.30
2019-02-14T16:30:24.800Z,12.00
2019-02-14T16:32:53.604Z,15.37
2019-02-14T16:35:32.098Z,10.37
2019-02-14T16:38:00.540Z,14.10
2019-02-14T16:40:38.334Z,13.73
2019-02-14T16:43:00.914Z,11.40
2019-02-14T16:45:29.361Z,13.33
2019-02-14T16:47:57.799Z,13.80
2019-02-14T16:50:26.448Z,14.63
2019-02-14T16:52:54.895Z,18.93
2019-02-14T16:55:23.368Z,16.27
2019-02-14T16:57:51.806Z,20.23
2019-02-14T17:00:20.566Z,18.63
2019-02-14T17:02:49.005Z,14.27
2019-02-14T17:05:17.458Z,16.93
2019-02-14T17:07:45.923Z,14.97
2019-02-14T17:10:14.456Z,13.83
2019-02-14T17:12:42.971Z,14.17
2019-02-14T17:15:12.735Z,15.30
2019-02-14T17:17:41.185Z,17.10
2019-02-14T17:20:11.801Z,30.57
2019-02-14T17:22:40.246Z,33.00
2019-02-14T17:25:08.949Z,41.97
2019-02-14T17:27:37.752Z,26.10
2019-02-14T17:30:08.576Z,16.73
2019-02-14T17:32:37.374Z,16.67
2019-02-14T17:35:07.465Z,25.00
2019-02-14T17:37:36.284Z,27.27
2019-02-14T17:40:08.226Z,29.37
2019-02-14T17:42:36.660Z,26.47
2019-02-14T17:45:07.648Z,40.67
2019-02-14T17:47:36.128Z,29.60
2019-02-14T17:50:05.524Z,31.10
2019-02-14T17:52:33.934Z,19.87
2019-02-14T17:55:02.386Z,17.77
2019-02-14T17:57:31.185Z,24.63
2019-02-14T17:59:59.959Z,18.50
2019-02-14T18:02:28.798Z,17.43
2019-02-14T18:04:57.651Z,16.97
2019-02-14T18:07:26.099Z,16.37
2019-02-14T18:09:54.547Z,18.60
2019-02-14T18:12:23.038Z,19.90
2019-02-14T18:14:51.878Z,24.23
2019-02-14T18:17:20.324Z,21.57
2019-02-14T18:19:49.152Z,21.67
2019-02-14T18:22:17.646Z,21.80
2019-02-14T18:24:46.511Z,25.13
2019-02-14T18:27:15.001Z,22.20
2019-02-14T18:29:43.484Z,26.43
2019-02-14T18:32:11.944Z,26.77
2019-02-14T18:34:40.836Z,22.90
2019-02-14T18:37:09.805Z,19.77
2019-02-14T18:39:38.279Z,25.90
2019-02-14T18:42:07.080Z,30.00
2019-02-14T18:44:36.080Z,23.60
2019-02-14T18:47:04.549Z,22.70
2019-02-14T18:49:33.382Z,29.23
2019-02-14T18:52:02.344Z,30.43
2019-02-14T18:54:30.795Z,35.93
2019-02-14T18:56:59.265Z,31.47
2019-02-14T18:59:28.093Z,25.00
2019-02-14T19:01:56.578Z,26.43
2019-02-14T19:04:25.461Z,27.97
2019-02-14T19:06:54.252Z,20.50
2019-02-14T19:09:22.688Z,24.00
2019-02-14T19:11:51.148Z,21.30
2019-02-14T19:14:19.981Z,24.53
2019-02-14T19:16:48.723Z,24.87
2019-02-14T19:19:17.173Z,23.20
2019-02-14T19:21:45.711Z,28.90
2019-02-14T19:24:14.882Z,33.13
2019-02-14T19:26:43.340Z,28.67
2019-02-14T19:29:12.155Z,23.97
2019-02-14T19:31:40.662Z,25.83
2019-02-14T19:34:09.113Z,29.57
2019-02-14T19:36:37.613Z,23.83
2019-02-14T19:39:07.050Z,19.77
2019-02-14T19:41:35.669Z,19.90
2019-02-14T19:44:04.333Z,20.23
2019-02-14T19:46:32.861Z,22.77
2019-02-14T19:49:01.295Z,21.57
2019-02-14T19:51:30.061Z,21.80
2019-02-14T19:53:58.556Z,19.43
2019-02-14T19:56:27.067Z,23.07
2019-02-14T19:58:55.515Z,21.53
2019-02-14T20:01:23.965Z,22.93
2019-02-14T20:03:52.423Z,20.67
2019-02-14T20:06:20.877Z,26.20
2019-02-14T20:08:49.602Z,25.33
2019-02-14T20:11:18.070Z,24.93
2019-02-14T20:13:49.505Z,22.77
2019-02-14T20:16:16.800Z,25.67
2019-02-14T20:18:45.252Z,27.60
2019-02-14T20:21:13.953Z,25.30
2019-02-14T20:23:42.397Z,30.00
2019-02-14T20:26:10.848Z,21.30
2019-02-14T20:28:39.597Z,32.23
2019-02-14T20:31:08.036Z,25.27
2019-02-14T20:33:36.478Z,27.07
2019-02-14T20:36:04.942Z,23.93
2019-02-14T20:38:33.393Z,27.70
2019-02-14T20:41:01.841Z,24.03
2019-02-14T20:43:30.303Z,41.63
2019-02-14T20:45:58.763Z,31.97
2019-02-14T20:48:27.216Z,25.80
2019-02-14T20:50:56.033Z,22.57
2019-02-14T20:53:24.509Z,23.17
2019-02-14T20:55:53.003Z,21.13
2019-02-14T20:58:21.864Z,27.97
2019-02-14T21:00:50.321Z,26.43
2019-02-14T21:03:18.839Z,24.97
2019-02-14T21:05:47.303Z,27.13
2019-02-14T21:08:16.918Z,23.83
2019-02-14T21:10:45.396Z,22.43
2019-02-14T21:13:14.186Z,19.87
2019-02-14T21:15:42.643Z,24.70
2019-02-14T21:18:11.439Z,20.17
2019-02-14T21:20:39.873Z,24.67
2019-02-14T21:23:08.602Z,21.83
2019-02-14T21:25:39.790Z,23.07
2019-02-14T21:28:08.267Z,25.27
2019-02-14T21:30:36.776Z,30.13
2019-02-14T21:33:05.617Z,42.77
2019-02-14T21:35:34.047Z,26.50
2019-02-14T21:38:02.531Z,16.43
2019-02-14T21:40:31.054Z,17.67
2019-02-14T21:42:59.592Z,28.37
2019-02-14T21:45:28.054Z,26.73
2019-02-14T21:47:56.524Z,28.33
2019-02-14T21:50:24.971Z,30.10
2019-02-14T21:52:53.434Z,23.47
2019-02-14T21:55:21.975Z,22.00
2019-02-14T21:57:50.713Z,26.10
2019-02-14T22:00:27.574Z,23.47
2019-02-14T22:02:56.047Z,17.67
2019-02-14T22:05:26.370Z,18.13
2019-02-14T22:07:55.083Z,20.00
2019-02-14T22:10:23.567Z,22.03
2019-02-14T22:12:52.028Z,17.07
2019-02-14T22:15:28.211Z,16.13
2019-02-14T22:17:56.732Z,16.90
2019-02-14T22:20:25.252Z,16.57
2019-02-14T22:22:53.710Z,18.00
2019-02-14T22:25:22.262Z,14.27
2019-02-14T22:27:50.687Z,20.53
2019-02-14T22:30:19.141Z,18.47
2019-02-14T22:32:47.593Z,17.13
2019-02-14T22:35:16.136Z,16.43
2019-02-14T22:37:44.908Z,17.20
2019-02-14T22:40:14.732Z,19.53
2019-02-14T22:42:47.586Z,19.67
2019-02-14T22:45:15.420Z,21.13
2019-02-14T22:47:45.409Z,19.27
2019-02-14T22:50:14.227Z,18.97
2019-02-14T22:52:42.686Z,16.93
2019-02-14T22:55:13.603Z,14.80
2019-02-14T22:57:42.576Z,16.67
2019-02-14T23:00:14.284Z,17.23
2019-02-14T23:02:42.722Z,19.33
2019-02-14T23:05:12.224Z,18.87
2019-02-14T23:07:41.003Z,16.17
2019-02-14T23:10:10.002Z,17.00
2019-02-14T23:12:38.454Z,19.60
2019-02-14T23:15:08.610Z,16.30
2019-02-14T23:17:38.924Z,16.23
2019-02-14T23:20:08.008Z,19.30
2019-02-14T23:22:36.450Z,16.57
2019-02-14T23:25:06.039Z,18.30
2019-02-14T23:27:34.491Z,15.17
2019-02-14T23:30:03.477Z,14.03
2019-02-14T23:32:31.932Z,13.87
2019-02-14T23:35:00.396Z,16.13
2019-02-14T23:37:28.856Z,15.87
2019-02-14T23:39:59.283Z,16.03
2019-02-14T23:42:27.726Z,14.93
2019-02-14T23:44:56.183Z,16.67
2019-02-14T23:47:24.988Z,15.50
2019-02-14T23:49:53.445Z,14.50
2019-02-14T23:52:21.937Z,13.67
2019-02-14T23:54:50.390Z,15.40
2019-02-14T23:57:18.839Z,14.60
2019-02-14T23:59:47.305Z,16.40
